createdAt,value
2022-11-08T00:00:37.954Z,8.98
2022-11-08T00:03:46.016Z,6.45
2022-11-08T00:06:48.312Z,7.65
2022-11-08T00:09:50.307Z,7.63
2022-11-08T00:12:52.171Z,7.50
2022-11-08T00:15:54.029Z,8.88
2022-11-08T00:18:55.978Z,8.73
2022-11-08T00:21:58.027Z,8.38
2022-11-08T00:25:00.020Z,7.82
2022-11-08T00:28:01.929Z,6.75
2022-11-08T00:31:07.045Z,8.30
2022-11-08T00:34:08.956Z,7.90
2022-11-08T00:37:11.534Z,7.35
2022-11-08T00:40:13.568Z,9.93
2022-11-08T00:43:15.471Z,7.43
2022-11-08T00:46:17.449Z,5.45
2022-11-08T00:49:19.576Z,7.05
2022-11-08T00:52:21.530Z,6.32
2022-11-08T00:55:23.536Z,8.18
2022-11-08T00:58:27.692Z,5.57
2022-11-08T01:01:30.073Z,4.95
2022-11-08T01:04:32.054Z,5.60
2022-11-08T01:07:34.469Z,8.45
2022-11-08T01:10:36.571Z,4.72
2022-11-08T01:13:41.084Z,7.93
2022-11-08T01:16:43.264Z,7.97
2022-11-08T01:19:45.246Z,8.75
2022-11-08T01:22:47.177Z,7.38
2022-11-08T01:25:49.723Z,5.88
2022-11-08T01:28:52.137Z,6.07
2022-11-08T01:31:54.100Z,5.70
2022-11-08T01:34:55.984Z,5.35
2022-11-08T01:37:58.544Z,5.57
2022-11-08T01:41:00.626Z,5.65
2022-11-08T01:44:02.512Z,5.82
2022-11-08T01:47:04.447Z,7.10
2022-11-08T01:50:13.014Z,6.10
2022-11-08T01:53:14.973Z,5.18
2022-11-08T01:56:17.355Z,5.53
2022-11-08T01:59:19.712Z,7.20
2022-11-08T02:02:22.426Z,5.10
2022-11-08T02:08:37.749Z,6.00
2022-11-08T02:11:40.548Z,7.32
2022-11-08T02:14:42.811Z,8.18
2022-11-08T02:17:44.723Z,8.82
2022-11-08T02:21:00.435Z,9.20
2022-11-08T02:24:09.535Z,7.68
2022-11-08T02:27:13.781Z,5.78
2022-11-08T02:30:15.755Z,5.82
2022-11-08T02:33:20.464Z,5.55
2022-11-08T02:36:24.434Z,6.32
2022-11-08T02:39:26.439Z,6.93
2022-11-08T02:42:28.377Z,7.97
2022-11-08T02:45:30.285Z,5.93
2022-11-08T02:48:32.155Z,6.55
2022-11-08T02:51:34.017Z,8.25
2022-11-08T02:54:35.967Z,7.35
2022-11-08T02:57:37.824Z,5.07
2022-11-08T03:00:40.202Z,6.85
2022-11-08T03:03:42.132Z,7.78
2022-11-08T03:06:44.033Z,6.93
2022-11-08T03:13:04.399Z,9.45
2022-11-08T03:16:06.969Z,7.32
2022-11-08T03:19:08.870Z,8.40
2022-11-08T03:22:10.761Z,9.07
2022-11-08T03:25:13.525Z,7.45
2022-11-08T03:28:19.072Z,6.80
2022-11-08T03:31:23.612Z,5.00
2022-11-08T03:34:25.506Z,7.18
2022-11-08T03:37:27.586Z,6.43
2022-11-08T03:40:29.463Z,5.13
2022-11-08T03:43:31.380Z,5.05
2022-11-08T03:46:33.305Z,6.07
2022-11-08T03:49:35.158Z,4.20
2022-11-08T03:52:41.347Z,7.35
2022-11-08T03:55:43.251Z,5.68
2022-11-08T03:58:45.194Z,5.80
2022-11-08T04:01:47.243Z,4.57
2022-11-08T04:04:51.738Z,5.03
2022-11-08T04:07:53.602Z,5.78
2022-11-08T04:10:56.570Z,5.53
2022-11-08T04:13:58.467Z,7.10
2022-11-08T04:17:00.361Z,6.05
2022-11-08T04:20:02.338Z,4.68
2022-11-08T04:23:04.460Z,5.43
2022-11-08T04:26:08.384Z,5.78
2022-11-08T04:29:10.692Z,4.85
2022-11-08T04:32:12.693Z,4.43
2022-11-08T04:35:14.771Z,6.80
2022-11-08T04:38:17.185Z,6.88
2022-11-08T04:44:24.055Z,6.20
2022-11-08T04:47:26.051Z,5.22
2022-11-08T04:50:27.985Z,8.25
2022-11-08T04:53:30.112Z,6.43
2022-11-08T04:56:32.118Z,6.07
2022-11-08T04:59:36.598Z,4.05
2022-11-08T05:02:40.911Z,3.80
2022-11-08T05:05:42.810Z,3.75
2022-11-08T05:08:44.982Z,4.55
2022-11-08T05:11:46.940Z,4.03
2022-11-08T05:14:48.834Z,5.65
2022-11-08T05:17:50.803Z,5.13
2022-11-08T05:20:56.946Z,6.22
2022-11-08T05:23:59.584Z,4.93
2022-11-08T05:27:01.477Z,5.80
2022-11-08T05:30:06.222Z,5.65
2022-11-08T05:33:08.735Z,5.47
2022-11-08T05:36:15.082Z,6.00
2022-11-08T05:39:16.951Z,5.38
2022-11-08T05:42:18.873Z,6.05
2022-11-08T05:45:22.087Z,5.32
2022-11-08T05:48:24.440Z,4.60
2022-11-08T05:51:26.354Z,4.28
2022-11-08T05:54:28.228Z,6.03
2022-11-08T05:57:30.043Z,4.03
2022-11-08T06:00:31.996Z,4.22
2022-11-08T06:03:36.955Z,6.13
2022-11-08T06:06:39.278Z,5.30
2022-11-08T06:09:41.275Z,7.38
2022-11-08T06:12:43.314Z,4.90
2022-11-08T06:15:45.379Z,5.45
2022-11-08T06:18:48.093Z,5.65
2022-11-08T06:21:50.218Z,5.18
2022-11-08T06:24:52.254Z,8.25
2022-11-08T06:27:54.248Z,5.15
2022-11-08T06:30:59.828Z,6.47
2022-11-08T06:34:02.548Z,5.80
2022-11-08T06:40:07.403Z,6.28
2022-11-08T06:46:20.183Z,7.57
2022-11-08T06:49:25.705Z,5.20
2022-11-08T06:52:27.852Z,8.75
2022-11-08T06:55:31.106Z,8.05
2022-11-08T06:58:33.249Z,7.95
2022-11-08T07:01:35.620Z,5.97
2022-11-08T07:04:37.792Z,7.30
2022-11-08T07:07:39.923Z,10.15
2022-11-08T07:10:41.981Z,9.40
2022-11-08T07:13:44.172Z,11.02
2022-11-08T07:16:46.178Z,7.45
2022-11-08T07:19:48.226Z,6.97
2022-11-08T07:22:54.081Z,7.75
2022-11-08T07:25:56.070Z,8.38
2022-11-08T07:28:58.205Z,13.35
2022-11-08T07:32:00.365Z,22.67
2022-11-08T07:35:02.394Z,38.90
2022-11-08T07:38:04.354Z,11.48
2022-11-08T07:41:06.614Z,6.38
2022-11-08T07:44:08.560Z,6.85
2022-11-08T07:47:10.996Z,6.15
2022-11-08T07:50:16.382Z,5.63
2022-11-08T07:53:20.273Z,7.43
2022-11-08T07:56:22.651Z,10.85
2022-11-08T07:59:27.180Z,6.55
2022-11-08T08:02:29.309Z,6.65
2022-11-08T08:05:35.272Z,5.55
2022-11-08T08:08:37.477Z,6.25
2022-11-08T08:11:39.529Z,6.00
2022-11-08T08:14:41.479Z,8.40
2022-11-08T08:17:43.547Z,5.32
2022-11-08T08:20:46.761Z,11.68
2022-11-08T08:23:48.787Z,8.55
2022-11-08T08:26:50.804Z,14.82
2022-11-08T08:29:52.843Z,14.00
2022-11-08T08:33:26.935Z,8.32
2022-11-08T08:36:24.712Z,9.68
2022-11-08T08:39:26.724Z,10.38
2022-11-08T08:42:28.720Z,7.20
2022-11-08T08:45:32.235Z,8.98
2022-11-08T08:48:34.471Z,11.70
2022-11-08T08:51:36.507Z,6.10
2022-11-08T08:54:38.551Z,7.90
2022-11-08T08:57:47.556Z,8.70
2022-11-08T09:04:11.711Z,7.47
2022-11-08T09:07:13.999Z,8.35
2022-11-08T09:13:18.465Z,5.22
2022-11-08T09:16:20.727Z,9.18
2022-11-08T09:19:22.761Z,8.27
2022-11-08T09:22:24.826Z,6.78
2022-11-08T09:28:31.721Z,6.22
2022-11-08T09:31:33.957Z,9.35
2022-11-08T09:34:36.119Z,5.30
2022-11-08T09:40:52.788Z,6.68
2022-11-08T09:44:17.052Z,8.55
2022-11-08T09:47:34.690Z,5.40
2022-11-08T09:50:45.442Z,6.22
2022-11-08T09:53:58.943Z,6.57
2022-11-08T09:57:02.249Z,6.97
2022-11-08T10:00:12.710Z,8.25
2022-11-08T10:03:18.188Z,5.20
2022-11-08T10:06:35.394Z,5.88
2022-11-08T10:10:05.593Z,7.00
2022-11-08T10:13:10.796Z,4.70
2022-11-08T10:16:26.104Z,8.05
2022-11-08T10:20:03.670Z,9.55
2022-11-08T10:23:26.730Z,8.35
2022-11-08T10:26:36.980Z,7.53
2022-11-08T10:29:44.274Z,6.57
2022-11-08T10:32:50.480Z,6.15
2022-11-08T10:36:24.414Z,4.80
2022-11-08T10:39:34.934Z,6.72
2022-11-08T10:42:45.452Z,6.68
2022-11-08T10:45:47.440Z,9.40
2022-11-08T10:48:49.478Z,5.60
2022-11-08T10:51:59.830Z,6.38
2022-11-08T10:55:05.753Z,7.13
2022-11-08T10:58:29.339Z,5.25
2022-11-08T11:01:31.463Z,5.43
2022-11-08T11:04:33.959Z,6.28
2022-11-08T11:10:42.325Z,7.25
2022-11-08T11:13:44.392Z,6.63
2022-11-08T11:16:58.629Z,5.38
2022-11-08T11:20:00.904Z,6.72
2022-11-08T11:23:02.904Z,8.85
2022-11-08T11:26:16.797Z,6.65
2022-11-08T11:29:36.751Z,4.53
2022-11-08T11:32:39.108Z,4.93
2022-11-08T11:35:53.320Z,4.40
2022-11-08T11:42:45.178Z,6.05
2022-11-08T11:46:08.976Z,5.40
2022-11-08T11:49:19.643Z,6.63
2022-11-08T12:03:41.475Z,4.88
2022-11-08T12:06:53.796Z,4.47
2022-11-08T12:10:19.723Z,5.88
2022-11-08T12:13:33.797Z,5.35
2022-11-08T12:17:06.046Z,7.55
2022-11-08T12:23:31.499Z,6.95
2022-11-08T12:26:42.459Z,4.50
2022-11-08T12:29:56.250Z,4.90
2022-11-08T12:33:25.412Z,4.15
2022-11-08T12:36:42.287Z,6.13
2022-11-08T12:39:52.586Z,5.75
2022-11-08T12:43:00.002Z,4.38
2022-11-08T12:46:11.729Z,4.82
2022-11-08T12:49:27.742Z,4.90
2022-11-08T12:52:41.927Z,5.57
2022-11-08T12:55:47.870Z,6.60
2022-11-08T12:58:51.736Z,5.38
2022-11-08T13:01:56.890Z,5.43
2022-11-08T13:05:04.810Z,4.80
2022-11-08T13:08:06.669Z,5.68
2022-11-08T13:11:19.469Z,9.20
2022-11-08T13:14:22.499Z,5.53
2022-11-08T13:17:26.761Z,5.90
2022-11-08T13:20:47.361Z,6.70
2022-11-08T13:23:49.292Z,5.20
2022-11-08T13:26:53.729Z,4.82
2022-11-08T13:30:19.225Z,4.40
2022-11-08T13:33:32.423Z,7.78
2022-11-08T13:37:05.370Z,5.50
2022-11-08T13:40:12.992Z,6.95
2022-11-08T13:43:21.006Z,7.53
2022-11-08T13:46:22.866Z,7.13
2022-11-08T13:49:24.822Z,4.78
2022-11-08T13:52:45.450Z,6.78
2022-11-08T13:56:17.456Z,6.90
2022-11-08T13:59:31.629Z,5.10
2022-11-08T14:02:34.286Z,5.60
2022-11-08T14:05:46.618Z,5.43
2022-11-08T14:09:30.668Z,4.25
2022-11-08T14:13:10.038Z,4.25
2022-11-08T14:16:20.615Z,5.20
2022-11-08T14:19:25.832Z,6.72
2022-11-08T14:22:30.127Z,9.40
2022-11-08T14:25:35.471Z,5.75
2022-11-08T14:28:41.190Z,4.95
2022-11-08T14:31:43.249Z,4.63
2022-11-08T14:34:45.912Z,4.57
2022-11-08T14:37:48.804Z,6.15
2022-11-08T14:44:14.780Z,7.68
2022-11-08T14:47:25.650Z,6.60
2022-11-08T14:50:34.198Z,3.95
2022-11-08T14:53:51.035Z,6.07
2022-11-08T14:56:53.306Z,5.82
2022-11-08T15:03:01.742Z,4.82
2022-11-08T15:06:13.554Z,4.75
2022-11-08T15:09:25.097Z,5.18
2022-11-08T15:12:42.930Z,4.95
2022-11-08T15:15:54.387Z,5.25
2022-11-08T15:18:56.380Z,5.25
2022-11-08T15:22:21.785Z,4.95
2022-11-08T15:25:34.248Z,5.78
2022-11-08T15:28:38.403Z,4.82
2022-11-08T15:32:01.110Z,4.97
2022-11-08T15:35:04.918Z,5.90
2022-11-08T15:38:29.741Z,6.80
2022-11-08T15:41:40.096Z,8.25
2022-11-08T15:45:02.530Z,5.15
2022-11-08T15:48:07.537Z,6.93
2022-11-08T15:51:09.397Z,7.28
2022-11-08T15:54:11.381Z,7.50
2022-11-08T15:57:13.232Z,8.02
2022-11-08T16:00:17.912Z,5.57
2022-11-08T16:03:19.870Z,4.78
2022-11-08T16:06:21.773Z,5.82
2022-11-08T16:09:23.679Z,5.55
2022-11-08T16:12:25.603Z,6.95
2022-11-08T16:15:30.482Z,8.70
2022-11-08T16:18:32.375Z,15.50
2022-11-08T16:21:34.265Z,11.10
2022-11-08T16:24:36.177Z,7.43
2022-11-08T16:27:38.095Z,6.35
2022-11-08T16:30:40.048Z,6.22
2022-11-08T16:33:46.167Z,7.63
2022-11-08T16:36:49.464Z,7.22
2022-11-08T16:39:51.415Z,9.18
2022-11-08T16:42:53.675Z,9.38
2022-11-08T16:46:06.082Z,12.38
2022-11-08T16:49:19.808Z,11.80
2022-11-08T16:52:21.674Z,6.57
2022-11-08T16:55:23.921Z,9.57
2022-11-08T16:58:26.800Z,6.43
2022-11-08T17:01:33.319Z,9.70
2022-11-08T17:04:35.282Z,8.88
2022-11-08T17:07:37.372Z,7.97
2022-11-08T17:10:39.512Z,8.85
2022-11-08T17:13:41.419Z,11.00
2022-11-08T17:16:43.260Z,11.05
2022-11-08T17:19:45.169Z,6.70
2022-11-08T17:22:48.291Z,7.75
2022-11-08T17:25:50.209Z,7.90
2022-11-08T17:28:55.654Z,9.57
2022-11-08T17:31:57.540Z,12.02
2022-11-08T17:34:59.371Z,12.23
2022-11-08T17:38:01.246Z,13.60
2022-11-08T17:41:05.419Z,13.02
2022-11-08T17:44:07.427Z,9.75
2022-11-08T17:47:09.359Z,7.80
2022-11-08T17:50:13.651Z,8.43
2022-11-08T17:53:15.648Z,7.28
2022-11-08T17:56:17.727Z,9.63
2022-11-08T17:59:19.906Z,9.35
2022-11-08T18:02:21.899Z,9.40
2022-11-08T18:05:24.110Z,7.82
2022-11-08T18:08:28.188Z,8.85
2022-11-08T18:11:30.733Z,7.22
2022-11-08T18:17:35.799Z,9.73
2022-11-08T18:20:42.453Z,6.20
2022-11-08T18:23:47.002Z,7.95
2022-11-08T18:26:49.101Z,13.52
2022-11-08T18:29:51.264Z,7.45
2022-11-08T18:32:53.317Z,8.70
2022-11-08T18:35:55.697Z,9.63
2022-11-08T18:39:00.431Z,7.75
2022-11-08T18:42:02.507Z,9.75
2022-11-08T18:45:04.988Z,8.80
2022-11-08T18:51:12.488Z,11.90
2022-11-08T18:54:14.648Z,9.40
2022-11-08T18:57:17.137Z,9.57
2022-11-08T19:00:19.308Z,7.28
2022-11-08T19:03:21.944Z,10.18
2022-11-08T19:06:26.292Z,13.77
2022-11-08T19:09:28.419Z,11.50
2022-11-08T19:12:30.516Z,9.10
2022-11-08T19:15:32.657Z,9.40
2022-11-08T19:18:35.733Z,10.32
2022-11-08T19:21:38.059Z,7.38
2022-11-08T19:27:42.213Z,8.15
2022-11-08T19:30:52.948Z,13.05
2022-11-08T19:33:55.663Z,13.65
2022-11-08T19:36:57.696Z,15.68
2022-11-08T19:39:59.758Z,11.38
2022-11-08T19:43:01.851Z,12.95
2022-11-08T19:46:05.685Z,10.95
2022-11-08T19:49:07.822Z,10.98
2022-11-08T19:52:09.821Z,9.65
2022-11-08T19:55:12.094Z,11.10
2022-11-08T19:58:14.218Z,10.80
2022-11-08T20:01:23.176Z,9.70
2022-11-08T20:04:25.307Z,11.27
2022-11-08T20:07:27.341Z,15.82
2022-11-08T20:10:29.443Z,12.45
2022-11-08T20:13:31.698Z,12.90
2022-11-08T20:16:37.162Z,12.05
2022-11-08T20:19:39.227Z,9.95
2022-11-08T20:22:44.291Z,13.10
2022-11-08T20:25:49.033Z,11.65
2022-11-08T20:28:56.390Z,15.80
2022-11-08T20:32:00.250Z,10.77
2022-11-08T20:35:04.192Z,10.80
2022-11-08T20:38:06.631Z,11.02
2022-11-08T20:41:12.519Z,11.50
2022-11-08T20:44:14.627Z,12.43
2022-11-08T20:47:16.710Z,11.48
2022-11-08T20:50:18.871Z,9.60
2022-11-08T20:53:20.869Z,10.40
2022-11-08T20:56:24.522Z,9.05
2022-11-08T20:59:26.939Z,9.30
2022-11-08T21:05:31.205Z,11.20
2022-11-08T21:11:58.305Z,12.07
2022-11-08T21:15:00.361Z,27.98
2022-11-08T21:18:02.348Z,23.70
2022-11-08T21:21:14.434Z,21.20
2022-11-08T21:24:16.655Z,21.73
2022-11-08T21:27:18.705Z,17.75
2022-11-08T21:30:20.808Z,18.20
2022-11-08T21:33:23.927Z,20.08
2022-11-08T21:36:28.312Z,20.00
2022-11-08T21:39:31.181Z,21.05
2022-11-08T21:42:39.681Z,14.70
2022-11-08T21:45:43.759Z,13.25
2022-11-08T21:48:46.855Z,15.02
2022-11-08T21:51:49.400Z,11.98
2022-11-08T21:54:51.437Z,14.65
2022-11-08T21:57:53.560Z,13.90
2022-11-08T22:00:55.823Z,13.43
2022-11-08T22:03:58.785Z,10.02
2022-11-08T22:07:01.028Z,12.65
2022-11-08T22:10:04.204Z,14.05
2022-11-08T22:13:06.209Z,12.07
2022-11-08T22:16:08.393Z,13.07
2022-11-08T22:22:13.790Z,9.82
2022-11-08T22:25:15.751Z,10.45
2022-11-08T22:28:18.169Z,14.07
2022-11-08T22:31:20.593Z,8.82
2022-11-08T22:34:22.690Z,8.85
2022-11-08T22:37:24.756Z,6.80
2022-11-08T22:40:26.819Z,8.15
2022-11-08T22:43:28.816Z,9.38
2022-11-08T22:46:30.841Z,10.18
2022-11-08T22:49:32.791Z,9.48
2022-11-08T22:52:34.868Z,9.38
2022-11-08T22:55:36.910Z,8.40
2022-11-08T22:58:39.639Z,8.38
2022-11-08T23:01:41.684Z,7.50
2022-11-08T23:04:43.666Z,8.30
2022-11-08T23:07:45.736Z,8.10
2022-11-08T23:10:48.451Z,9.05
2022-11-08T23:13:50.770Z,13.48
2022-11-08T23:16:52.732Z,13.25
2022-11-08T23:19:54.673Z,7.68
2022-11-08T23:22:56.772Z,7.15
2022-11-08T23:25:58.849Z,9.07
2022-11-08T23:29:00.982Z,10.90
2022-11-08T23:32:03.109Z,10.70
2022-11-08T23:35:05.303Z,9.52
2022-11-08T23:38:07.287Z,11.25
2022-11-08T23:41:10.065Z,11.77
2022-11-08T23:44:12.143Z,10.73
2022-11-08T23:47:16.570Z,8.70
2022-11-08T23:50:18.587Z,8.30
2022-11-08T23:53:22.457Z,9.30
2022-11-08T23:56:26.765Z,9.23
2022-11-08T23:59:28.669Z,10.93
